Time;durP1;ratioP1;P1;durP2;ratioP2;P2;SDS_P1;SDS_P2;PMS_P1;PMS_P2;Temp;Humidity;BMP_temperature;BMP_pressure;BME280_temperature;BME280_humidity;BME280_pressure;Samples;Min_cycle;Max_cycle;Signal;HPM_P1;HPM_P2
2023/03/08 00:01:25;;;;;;;16.70;6.40;;;;;;;10.04;88.98;99225.63;4976972;28;20051;-80
2023/03/08 00:03:52;;;;;;;13.93;6.03;;;;;;;9.91;90.33;99228.13;4996321;28;20110;-82
2023/03/08 00:06:18;;;;;;;12.32;5.57;;;;;;;9.92;89.97;99225.28;4997498;28;20044;-80
2023/03/08 00:08:47;;;;;;;13.57;5.53;;;;;;;10.26;87.01;99216.66;4996871;28;20110;-79
2023/03/08 00:11:21;;;;;;;13.55;5.18;;;;;;;10.46;85.20;99228.22;4996560;28;20112;-80
2023/03/08 00:13:50;;;;;;;11.38;4.38;;;;;;;10.54;82.44;99225.41;4996224;28;20035;-83
2023/03/08 00:16:19;;;;;;;6.10;3.15;;;;;;;10.54;81.58;99214.81;5010530;28;20065;-81
2023/03/08 00:18:45;;;;;;;11.38;4.25;;;;;;;10.34;82.17;99200.66;5004665;28;20034;-79
2023/03/08 00:21:31;;;;;;;11.05;4.25;;;;;;;10.04;84.42;99205.22;5004127;28;20520;-80
2023/03/08 00:23:57;;;;;;;11.98;4.45;;;;;;;9.82;86.75;99222.97;4973047;28;20058;-81
2023/03/08 00:26:29;;;;;;;12.02;3.75;;;;;;;9.96;86.27;99215.16;4987778;28;20037;-81
2023/03/08 00:28:56;;;;;;;11.05;4.45;;;;;;;10.02;86.25;99211.72;5005795;28;20046;-79
2023/03/08 00:31:35;;;;;;;11.13;4.00;;;;;;;10.04;86.44;99222.97;4990908;28;20031;-80
2023/03/08 00:34:07;;;;;;;8.65;3.97;;;;;;;10.05;86.93;99220.13;5010822;28;20070;-79
2023/03/08 00:36:52;;;;;;;9.05;4.30;;;;;;;9.76;89.83;99217.59;4993021;28;20043;-82
2023/03/08 00:39:21;;;;;;;13.82;4.35;;;;;;;9.76;90.11;99215.78;4991772;28;20045;-82
2023/03/08 00:41:55;;;;;;;11.77;4.82;;;;;;;9.77;90.34;99217.44;4994431;28;20023;-80
2023/03/08 00:44:21;;;;;;;10.00;4.40;;;;;;;9.64;90.94;99212.00;5002547;28;20030;-80
2023/03/08 00:46:50;;;;;;;10.88;4.13;;;;;;;9.68;91.48;99200.03;5017257;28;20099;-79
2023/03/08 00:49:22;;;;;;;10.57;5.05;;;;;;;9.70;93.02;99211.25;4999462;28;20071;-79
2023/03/08 00:51:51;;;;;;;10.75;4.90;;;;;;;9.77;91.68;99213.97;4997838;28;20097;-80
2023/03/08 00:54:20;;;;;;;9.93;4.55;;;;;;;9.95;89.73;99208.19;4992565;28;20034;-81
2023/03/08 00:56:45;;;;;;;10.60;4.75;;;;;;;10.03;88.08;99218.69;4971929;28;20030;-78
2023/03/08 00:59:17;;;;;;;12.32;4.10;;;;;;;9.98;87.42;99202.53;4970039;28;20579;-80
2023/03/08 01:01:48;;;;;;;11.55;4.28;;;;;;;9.88;87.29;99214.25;4985399;28;20080;-78
2023/03/08 01:04:14;;;;;;;8.68;4.22;;;;;;;9.90;86.86;99206.16;4968890;28;20073;-81
2023/03/08 01:06:42;;;;;;;8.70;4.03;;;;;;;9.92;86.82;99209.41;5001649;28;20096;-80
2023/03/08 01:09:10;;;;;;;8.90;4.22;;;;;;;9.92;86.17;99203.28;4987180;28;20030;-79
2023/03/08 01:11:43;;;;;;;9.88;3.70;;;;;;;9.82;87.09;99199.16;4986419;28;20034;-82
2023/03/08 01:14:08;;;;;;;8.43;3.70;;;;;;;9.82;86.86;99215.03;4986151;28;20095;-79
2023/03/08 01:16:35;;;;;;;13.93;4.43;;;;;;;9.59;89.44;99209.09;4971215;28;20038;-81
2023/03/08 01:19:03;;;;;;;10.30;4.38;;;;;;;9.47;91.43;99220.34;4970329;28;20034;-80
2023/03/08 01:21:31;;;;;;;9.18;4.32;;;;;;;9.28;94.41;99224.38;4971463;28;20055;-80
2023/03/08 01:23:57;;;;;;;10.70;4.50;;;;;;;9.28;95.73;99227.03;4989786;28;20042;-80
2023/03/08 01:26:29;;;;;;;9.50;4.78;;;;;;;9.52;94.00;99221.41;4989065;28;20045;-80
2023/03/08 01:28:56;;;;;;;8.88;4.38;;;;;;;9.70;91.85;99221.84;4988834;28;20042;-78
2023/03/08 01:31:24;;;;;;;11.95;5.00;;;;;;;9.24;96.38;99209.94;4993344;28;20454;-80
2023/03/08 01:33:52;;;;;;;9.55;4.95;;;;;;;9.31;96.65;99205.53;4988271;28;20034;-80
2023/03/08 01:36:20;;;;;;;12.65;5.10;;;;;;;9.20;97.55;99204.19;4972545;28;20037;-78
2023/03/08 01:38:50;;;;;;;10.07;4.60;;;;;;;9.08;98.61;99204.84;4988703;28;20074;-80
2023/03/08 01:41:20;;;;;;;10.20;5.18;;;;;;;9.29;96.31;99202.25;4972347;28;20048;-82
2023/03/08 01:43:56;;;;;;;13.43;5.00;;;;;;;9.25;95.57;99195.69;4974593;28;20588;-80
2023/03/08 01:46:42;;;;;;;9.88;4.30;;;;;;;9.19;94.44;99207.81;4989688;28;20127;-79
2023/03/08 01:49:27;;;;;;;7.47;4.00;;;;;;;8.83;96.98;99197.22;5006900;28;20038;-81
2023/03/08 01:51:57;;;;;;;11.55;4.45;;;;;;;8.90;96.92;99192.00;4990240;28;20038;-79
2023/03/08 01:54:45;;;;;;;11.75;4.45;;;;;;;8.98;95.16;99191.09;4989400;28;20034;-82
2023/03/08 01:57:23;;;;;;;9.38;3.65;;;;;;;8.94;96.69;99192.47;5001809;28;20060;-79
2023/03/08 01:59:55;;;;;;;12.48;3.90;;;;;;;9.11;93.94;99200.03;4990026;28;20046;-79
2023/03/08 02:02:30;;;;;;;8.75;3.92;;;;;;;9.18;92.87;99203.53;4974324;28;20031;-81
2023/03/08 02:04:58;;;;;;;11.82;4.00;;;;;;;9.29;90.88;99196.97;4990942;28;20050;-79
2023/03/08 02:07:33;;;;;;;16.55;3.67;;;;;;;8.93;94.36;99198.75;4976589;28;20134;-80
2023/03/08 02:10:02;;;;;;;12.20;4.43;;;;;;;8.79;95.38;99198.56;4994176;28;20041;-80
2023/03/08 02:12:32;;;;;;;12.05;4.15;;;;;;;8.91;95.62;99198.94;5011920;28;20026;-81
2023/03/08 02:14:58;;;;;;;9.65;3.75;;;;;;;8.75;96.90;99194.66;4993921;28;20868;-80
2023/03/08 02:17:28;;;;;;;11.13;4.25;;;;;;;8.73;97.55;99194.03;4994669;28;20038;-80
2023/03/08 02:20:05;;;;;;;10.25;4.53;;;;;;;8.62;98.23;99188.38;4995440;28;20107;-80
2023/03/08 02:22:37;;;;;;;10.48;4.82;;;;;;;8.30;100.00;99177.16;4977724;28;20038;-82
2023/03/08 02:25:26;;;;;;;10.90;4.25;;;;;;;8.49;100.00;99172.34;4979421;28;20042;-78
2023/03/08 02:27:56;;;;;;;9.98;4.32;;;;;;;8.48;98.51;99171.53;4992893;28;20058;-78
2023/03/08 02:30:28;;;;;;;13.52;4.47;;;;;;;8.67;96.74;99180.72;4993147;28;20077;-80
2023/03/08 02:32:55;;;;;;;15.55;4.82;;;;;;;8.93;94.22;99169.69;4961489;28;20038;-80
2023/03/08 02:35:21;;;;;;;10.27;4.20;;;;;;;8.98;92.98;99172.59;4961104;28;20046;-81
2023/03/08 02:37:50;;;;;;;9.18;4.30;;;;;;;9.17;90.25;99175.50;5011415;28;20482;-79
2023/03/08 02:40:23;;;;;;;10.45;3.95;;;;;;;8.86;91.79;99169.59;5005289;28;20046;-80
2023/03/08 02:43:12;;;;;;;7.37;3.70;;;;;;;8.63;95.16;99172.34;4993611;28;20037;-79
2023/03/08 02:45:45;;;;;;;8.95;3.50;;;;;;;8.88;92.19;99183.47;4993481;28;20086;-79
2023/03/08 02:48:11;;;;;;;11.77;4.00;;;;;;;8.58;94.46;99182.66;4990194;28;20042;-80
2023/03/08 02:50:40;;;;;;;12.77;4.03;;;;;;;8.28;97.15;99186.28;4992090;28;20065;-81
2023/03/08 02:53:12;;;;;;;6.72;3.15;;;;;;;8.39;97.77;99179.69;4994755;28;20038;-80
2023/03/08 02:55:52;;;;;;;13.18;3.90;;;;;;;8.32;97.73;99182.25;5010221;28;20045;-79
2023/03/08 02:58:23;;;;;;;15.85;3.97;;;;;;;8.50;95.25;99179.28;4987860;28;20051;-82
2023/03/08 03:00:55;;;;;;;8.60;3.60;;;;;;;8.41;96.86;99183.81;5010570;28;20207;-80
2023/03/08 03:03:42;;;;;;;8.25;2.75;;;;;;;8.24;98.40;99195.50;4977836;28;20039;-81
2023/03/08 03:06:30;;;;;;;10.18;3.53;;;;;;;8.11;99.11;99195.31;4974207;28;20105;-80
2023/03/08 03:08:56;;;;;;;7.50;3.53;;;;;;;8.09;100.00;99192.00;4973072;28;20054;-80
2023/03/08 03:13:59;;;;;;;12.43;3.65;;;;;;;8.17;100.00;99205.97;5022295;28;20131;-80
2023/03/08 03:16:35;;;;;;;13.10;4.32;;;;;;;8.01;100.00;99205.28;4996411;28;20046;-81
2023/03/08 03:19:01;;;;;;;5.93;3.30;;;;;;;8.02;100.00;99212.22;4993305;28;20516;-79
2023/03/08 03:21:30;;;;;;;7.40;3.50;;;;;;;8.25;100.00;99220.91;4977464;28;20058;-80
2023/03/08 03:24:10;;;;;;;8.80;3.45;;;;;;;8.46;98.48;99214.94;4994974;28;20034;-81
2023/03/08 03:26:49;;;;;;;10.13;3.88;;;;;;;8.44;98.13;99215.16;5010423;28;20033;-80
2023/03/08 03:29:26;;;;;;;12.07;4.22;;;;;;;8.39;99.28;99225.41;5026138;23;20046;-81
2023/03/08 03:32:08;;;;;;;13.88;3.90;;;;;;;8.51;99.09;99217.88;4994543;28;20042;-86
2023/03/08 03:34:57;;;;;;;6.72;3.83;;;;;;;8.48;98.72;99221.72;4984014;28;20037;-81
2023/03/08 03:37:25;;;;;;;7.38;3.53;;;;;;;8.65;97.84;99220.50;5001069;28;20049;-81
2023/03/08 03:40:07;;;;;;;11.10;4.70;;;;;;;8.30;100.00;99223.84;4965637;28;20047;-80
2023/03/08 03:42:34;;;;;;;10.27;3.88;;;;;;;8.56;100.00;99220.78;4990971;28;20069;-81
2023/03/08 03:45:14;;;;;;;7.28;3.28;;;;;;;8.58;100.00;99222.28;4995535;28;20042;-81
2023/03/08 03:47:54;;;;;;;10.73;3.95;;;;;;;8.62;100.00;99212.13;4973611;28;20137;-79
2023/03/08 03:50:28;;;;;;;11.98;4.03;;;;;;;8.73;99.25;99217.81;5000605;28;20050;-81
2023/03/08 03:53:01;;;;;;;8.48;3.90;;;;;;;8.70;99.19;99220.81;4986277;28;20474;-79
2023/03/08 03:55:32;;;;;;;9.38;3.22;;;;;;;8.49;100.00;99225.16;5004171;28;20035;-82
2023/03/08 03:58:10;;;;;;;9.77;3.55;;;;;;;8.31;100.00;99225.50;4988297;28;20125;-79
2023/03/08 04:00:48;;;;;;;7.55;3.67;;;;;;;8.14;100.00;99226.59;4989380;28;20039;-80
2023/03/08 04:03:22;;;;;;;8.88;3.70;;;;;;;8.19;100.00;99229.53;4988109;28;20088;-80
2023/03/08 04:06:11;;;;;;;11.13;3.97;;;;;;;8.28;100.00;99231.16;4985311;28;20134;-78
2023/03/08 04:08:43;;;;;;;10.40;3.60;;;;;;;8.22;100.00;99239.72;4961883;28;20134;-81
2023/03/08 04:11:45;;;;;;;7.70;3.60;;;;;;;7.77;100.00;99251.13;4990988;28;20050;-81
2023/03/08 04:14:28;;;;;;;5.68;3.70;;;;;;;7.55;100.00;99252.75;4975217;28;20127;-82
2023/03/08 04:16:55;;;;;;;9.13;3.75;;;;;;;7.44;100.00;99250.50;4976667;28;20030;-82
2023/03/08 04:19:30;;;;;;;12.05;4.25;;;;;;;7.68;100.00;99253.00;4986513;28;20027;-80
2023/03/08 04:21:59;;;;;;;8.77;4.07;;;;;;;7.89;100.00;99264.75;4985746;28;20038;-79
2023/03/08 04:24:34;;;;;;;11.10;4.07;;;;;;;8.06;100.00;99268.88;4979343;28;20042;-80
2023/03/08 04:27:08;;;;;;;14.52;3.92;;;;;;;7.84;100.00;99261.78;4967558;28;20051;-80
2023/03/08 04:29:35;;;;;;;9.90;3.83;;;;;;;7.61;100.00;99262.59;5005824;28;20082;-80
2023/03/08 04:32:14;;;;;;;6.75;3.75;;;;;;;7.69;100.00;99257.25;4986303;28;20493;-78
2023/03/08 04:34:54;;;;;;;9.55;3.90;;;;;;;7.83;100.00;99260.97;5006630;28;20135;-83
2023/03/08 04:37:57;;;;;;;8.95;3.80;;;;;;;7.90;100.00;99256.63;4970000;28;20038;-81
2023/03/08 04:41:10;;;;;;;9.80;4.32;;;;;;;7.65;100.00;99266.53;4982560;28;20077;-80
2023/03/08 04:43:56;;;;;;;11.15;4.25;;;;;;;7.87;100.00;99266.72;4982233;28;20049;-80
2023/03/08 04:46:36;;;;;;;10.65;4.47;;;;;;;7.79;100.00;99260.50;4963194;28;20062;-81
2023/03/08 04:49:04;;;;;;;7.65;4.05;;;;;;;7.63;100.00;99260.59;4983228;28;20035;-80
2023/03/08 04:51:36;;;;;;;14.07;4.63;;;;;;;7.40;100.00;99251.84;4949390;28;20027;-81
2023/03/08 04:54:05;;;;;;;14.68;5.20;;;;;;;7.11;100.00;99241.09;4965354;28;20792;-81
2023/03/08 04:56:34;;;;;;;14.90;5.43;;;;;;;7.00;100.00;99246.75;4951661;28;20065;-81
2023/03/08 04:59:03;;;;;;;16.38;6.68;;;;;;;7.16;100.00;99254.56;4968558;28;20113;-80
2023/03/08 05:01:35;;;;;;;13.43;6.35;;;;;;;6.78;100.00;99252.75;4959885;28;20039;-83
2023/03/08 05:04:01;;;;;;;9.98;5.45;;;;;;;6.90;100.00;99246.13;4972688;28;20043;-81
2023/03/08 05:06:33;;;;;;;10.30;4.93;;;;;;;7.15;100.00;99243.25;4980478;28;20034;-79
2023/03/08 05:09:02;;;;;;;12.93;4.75;;;;;;;7.14;100.00;99240.75;4980042;28;20038;-82
2023/03/08 05:11:35;;;;;;;10.77;4.32;;;;;;;7.12;100.00;99248.03;4980661;28;20027;-79
2023/03/08 05:14:08;;;;;;;13.35;5.40;;;;;;;7.51;100.00;99246.19;4982399;28;20045;-80
2023/03/08 05:16:42;;;;;;;15.15;5.80;;;;;;;7.56;100.00;99245.63;4980930;28;20102;-80
2023/03/08 05:19:12;;;;;;;12.98;5.25;;;;;;;7.38;100.00;99248.56;4995753;28;20037;-81
2023/03/08 05:21:45;;;;;;;9.98;5.10;;;;;;;7.09;100.00;99243.09;4995930;28;20038;-79
2023/03/08 05:24:15;;;;;;;11.90;5.80;;;;;;;7.07;100.00;99247.72;4978830;28;20069;-82
2023/03/08 05:26:48;;;;;;;15.65;6.28;;;;;;;6.98;100.00;99246.09;4992698;28;20050;-80
2023/03/08 05:29:16;;;;;;;12.45;5.63;;;;;;;6.97;100.00;99236.53;4975419;28;20046;-81
2023/03/08 05:31:48;;;;;;;13.70;5.65;;;;;;;7.32;100.00;99238.72;4972969;28;20057;-81
2023/03/08 05:34:18;;;;;;;16.08;5.95;;;;;;;7.28;100.00;99253.22;4979602;28;20035;-82
2023/03/08 05:39:46;;;;;;;16.25;6.03;;;;;;;7.38;100.00;99259.09;4911696;29;20083;-80
2023/03/08 05:42:23;;;;;;;16.60;6.82;;;;;;;7.32;100.00;99257.16;4904769;29;20049;-80
2023/03/08 05:45:09;;;;;;;16.95;7.82;;;;;;;7.13;100.00;99244.38;4910062;29;20053;-82
2023/03/08 05:51:35;;;;;;;17.15;7.10;;;;;;;7.28;100.00;99253.22;4919394;29;20049;-79
2023/03/08 05:54:08;;;;;;;15.18;6.85;;;;;;;7.35;100.00;99256.81;4915738;29;20064;-81
2023/03/08 05:56:37;;;;;;;24.77;7.65;;;;;;;7.49;100.00;99261.34;4898248;29;20029;-79
2023/03/08 05:59:10;;;;;;;20.00;7.15;;;;;;;7.59;100.00;99263.78;4915572;29;20040;-80
2023/03/08 06:01:36;;;;;;;12.48;6.85;;;;;;;7.94;100.00;99267.66;4898808;29;20083;-81
2023/03/08 06:05:14;;;;;;;16.52;6.82;;;;;;;7.92;100.00;99280.22;4877661;29;20029;-82
2023/03/08 06:07:43;;;;;;;24.05;6.78;;;;;;;7.41;100.00;99279.03;4880038;29;20053;-81
2023/03/08 06:10:24;;;;;;;14.68;6.60;;;;;;;7.36;100.00;99292.69;4853087;29;20065;-79
2023/03/08 06:12:51;;;;;;;21.95;6.20;;;;;;;7.32;100.00;99294.06;4867799;29;20034;-79
2023/03/08 06:15:39;;;;;;;17.67;6.00;;;;;;;7.05;100.00;99289.22;4875096;29;20105;-80
2023/03/08 06:18:08;;;;;;;11.95;5.20;;;;;;;7.08;100.00;99291.50;4855998;29;20049;-80
2023/03/08 06:20:36;;;;;;;13.98;5.20;;;;;;;7.01;100.00;99304.53;4872979;29;20482;-77
2023/03/08 06:23:06;;;;;;;14.15;5.25;;;;;;;7.03;100.00;99299.91;4852612;29;20057;-80
2023/03/08 06:25:34;;;;;;;17.77;7.95;;;;;;;7.07;100.00;99316.19;4869066;29;20029;-81
2023/03/08 06:28:05;;;;;;;17.10;7.43;;;;;;;7.20;100.00;99327.84;4878541;29;20057;-87
2023/03/08 06:30:38;;;;;;;18.00;7.35;;;;;;;7.26;100.00;99321.06;4879530;29;20061;-87
2023/03/08 06:33:35;;;;;;;17.52;7.68;;;;;;;7.03;100.00;99299.91;4879465;29;20050;-86
2023/03/08 06:36:21;;;;;;;14.82;7.15;;;;;;;7.01;100.00;99324.78;4894792;29;20060;-86
2023/03/08 06:39:06;;;;;;;17.67;7.85;;;;;;;7.29;100.00;99331.31;4925687;29;20143;-89
2023/03/08 06:41:36;;;;;;;18.75;8.90;;;;;;;7.38;100.00;99347.88;4927080;29;20833;-87
2023/03/08 06:44:25;;;;;;;23.58;10.88;;;;;;;8.13;100.00;99351.63;4943444;23;20210;-87
2023/03/08 06:46:54;;;;;;;20.30;9.07;;;;;;;8.56;100.00;99364.22;4965448;28;20055;-87
2023/03/08 06:49:33;;;;;;;17.67;8.65;;;;;;;9.16;100.00;99369.44;4958995;28;20043;-88
2023/03/08 06:52:09;;;;;;;21.45;8.77;;;;;;;9.34;100.00;99363.81;4954044;28;20078;-87
2023/03/08 06:54:35;;;;;;;17.77;8.10;;;;;;;9.32;98.72;99368.44;4961676;28;20049;-87
2023/03/08 06:57:15;;;;;;;17.95;7.55;;;;;;;9.81;95.81;99366.84;4958875;28;20039;-86
2023/03/08 06:59:43;;;;;;;19.30;7.50;;;;;;;10.43;89.45;99382.25;4969284;28;20058;-85
2023/03/08 07:02:09;;;;;;;19.58;7.68;;;;;;;10.58;87.12;99393.56;4988550;28;20027;-86
2023/03/08 07:04:35;;;;;;;18.45;7.43;;;;;;;11.33;78.38;99390.31;4987704;28;20047;-85
2023/03/08 07:07:01;;;;;;;12.02;7.53;;;;;;;10.77;81.22;99406.19;4980605;28;20039;-84
2023/03/08 07:09:29;;;;;;;22.67;7.78;;;;;;;11.52;77.93;99413.50;4980939;28;20022;-84
2023/03/08 07:11:55;;;;;;;18.73;8.00;;;;;;;11.64;77.14;99411.91;4984150;28;20384;-84
2023/03/08 07:14:21;;;;;;;15.70;6.95;;;;;;;11.25;77.38;99409.84;4941747;28;20038;-85
2023/03/08 07:20:13;;;;;;;15.98;7.47;;;;;;;11.87;79.04;99399.19;4975766;28;20054;-84
2023/03/08 07:22:43;;;;;;;23.33;8.20;;;;;;;12.08;75.50;99410.72;4953695;28;20050;-86
2023/03/08 07:25:13;;;;;;;16.17;7.30;;;;;;;12.21;77.50;99411.59;4986251;28;20034;-87
2023/03/08 07:27:45;;;;;;;25.65;7.63;;;;;;;13.01;68.80;99434.63;4960878;29;20053;-86
2023/03/08 07:30:16;;;;;;;15.88;8.18;;;;;;;13.55;66.92;99437.09;4950616;28;20070;-85
2023/03/08 07:32:42;;;;;;;23.73;7.82;;;;;;;13.77;64.68;99430.50;4947429;28;20479;-87
2023/03/08 07:35:13;;;;;;;23.73;8.80;;;;;;;13.53;66.45;99427.66;4942591;28;20027;-84
2023/03/08 07:37:39;;;;;;;25.65;8.68;;;;;;;13.53;65.31;99425.81;4947409;28;20117;-86
2023/03/08 07:40:07;;;;;;;22.65;9.23;;;;;;;14.21;64.99;99427.06;4980867;28;20442;-86
2023/03/08 07:42:44;;;;;;;21.67;9.15;;;;;;;15.57;58.69;99436.19;4981439;28;20039;-85
2023/03/08 07:45:38;;;;;;;19.92;9.50;;;;;;;13.66;66.13;99432.97;4984205;28;20090;-84
2023/03/08 07:48:14;;;;;;;16.77;9.35;;;;;;;14.24;62.98;99428.47;4967140;28;20051;-86
2023/03/08 07:50:41;;;;;;;24.73;10.10;;;;;;;14.12;63.08;99425.63;4963852;28;20070;-84
2023/03/08 07:53:07;;;;;;;24.85;9.35;;;;;;;14.71;62.20;99435.22;4964654;28;20026;-85
2023/03/08 07:55:33;;;;;;;23.65;9.73;;;;;;;15.44;58.89;99449.63;4984869;28;20039;-86
2023/03/08 07:58:01;;;;;;;22.33;10.38;;;;;;;15.06;61.32;99454.25;4966389;28;20039;-85
2023/03/08 08:00:28;;;;;;;22.48;9.25;;;;;;;15.30;57.88;99464.13;4982611;28;20133;-85
2023/03/08 08:02:56;;;;;;;26.30;9.73;;;;;;;15.75;56.47;99475.44;4962942;28;20035;-86
2023/03/08 08:05:25;;;;;;;21.45;9.35;;;;;;;15.68;56.66;99478.19;4967249;28;20026;-85
2023/03/08 08:07:52;;;;;;;22.77;9.50;;;;;;;17.43;50.48;99479.81;4964866;28;20073;-86
2023/03/08 08:10:18;;;;;;;22.05;10.00;;;;;;;17.59;49.44;99492.56;4968369;28;20042;-88
2023/03/08 08:12:43;;;;;;;20.50;9.75;;;;;;;17.18;49.80;99490.72;4983133;28;20042;-85
2023/03/08 08:15:09;;;;;;;26.02;10.10;;;;;;;15.72;55.50;99481.22;4983492;28;20046;-86
2023/03/08 08:17:36;;;;;;;20.88;8.98;;;;;;;17.14;52.79;99464.63;4983645;28;20062;-85
2023/03/08 08:20:03;;;;;;;24.73;9.80;;;;;;;17.88;50.55;99474.72;4964406;28;20023;-86
2023/03/08 08:22:29;;;;;;;19.83;10.32;;;;;;;17.01;51.44;99469.16;4985112;28;20043;-85
2023/03/08 08:24:55;;;;;;;27.77;9.80;;;;;;;16.49;53.16;99464.50;4946628;29;20506;-89
2023/03/08 08:27:26;;;;;;;21.58;10.43;;;;;;;17.21;51.24;99468.84;4955693;28;20107;-86
2023/03/08 08:29:52;;;;;;;27.65;9.95;;;;;;;17.09;51.48;99478.72;4956899;28;20054;-84
2023/03/08 08:32:18;;;;;;;31.17;10.95;;;;;;;16.71;53.06;99479.06;4986102;28;20035;-85
2023/03/08 08:34:46;;;;;;;27.13;10.57;;;;;;;16.93;52.83;99472.16;4983609;28;20046;-87
2023/03/08 08:37:11;;;;;;;26.50;10.63;;;;;;;16.24;54.26;99467.28;4943473;29;20079;-85
2023/03/08 08:39:37;;;;;;;24.88;10.27;;;;;;;16.50;52.82;99466.94;4939539;28;20047;-84
2023/03/08 08:42:03;;;;;;;20.88;9.93;;;;;;;16.10;57.08;99455.13;4988546;28;20063;-86
2023/03/08 08:44:28;;;;;;;21.35;10.25;;;;;;;16.62;53.98;99453.66;4957031;28;20047;-86
2023/03/08 08:46:54;;;;;;;20.08;10.27;;;;;;;16.61;53.77;99443.19;4953207;28;20074;-85
2023/03/08 08:49:20;;;;;;;26.90;10.90;;;;;;;16.31;56.16;99443.13;4987710;28;20054;-86
2023/03/08 08:51:46;;;;;;;21.15;9.85;;;;;;;16.99;54.02;99460.53;4957385;28;20034;-85
2023/03/08 08:54:11;;;;;;;21.98;9.93;;;;;;;18.03;50.24;99467.81;4957435;28;20046;-87
2023/03/08 08:56:59;;;;;;;21.25;11.23;;;;;;;18.19;50.50;99468.97;4986336;28;20081;-87
2023/03/08 08:59:25;;;;;;;31.80;11.98;;;;;;;17.99;49.22;99465.84;4984345;28;20034;-87
2023/03/08 09:01:50;;;;;;;26.58;10.48;;;;;;;17.38;51.03;99471.66;4989863;28;20043;-86
2023/03/08 09:04:16;;;;;;;23.25;12.15;;;;;;;16.86;52.98;99482.16;4991084;28;20038;-84
2023/03/08 09:06:46;;;;;;;23.40;11.25;;;;;;;16.65;54.74;99485.31;4965054;28;20051;-85
2023/03/08 09:09:15;;;;;;;25.55;12.98;;;;;;;16.14;57.48;99488.38;4961487;28;20067;-87
2023/03/08 09:11:41;;;;;;;28.83;13.48;;;;;;;15.65;59.95;99497.31;4976690;28;20046;-89
2023/03/08 09:14:15;;;;;;;27.30;12.45;;;;;;;15.29;62.78;99499.84;5247986;23;20038;-88
2023/03/08 09:16:43;;;;;;;27.02;12.93;;;;;;;14.88;65.03;99509.16;4980224;23;20057;-90
2023/03/08 09:19:09;;;;;;;34.42;13.70;;;;;;;15.04;65.36;99515.03;5009220;28;20102;-87
2023/03/08 09:21:38;;;;;;;32.35;14.02;;;;;;;14.60;67.20;99497.22;5011298;28;20026;-89
2023/03/08 09:24:09;;;;;;;33.15;14.90;;;;;;;14.29;69.88;99504.09;4996682;28;20034;-87
2023/03/08 09:29:46;;;;;;;31.13;14.55;;;;;;;14.35;71.53;99513.94;4170015;27;20048;-88
2023/03/08 09:40:28;;;;;;;35.55;15.20;;;;;;;14.23;74.00;99520.09;4883541;27;20044;-89
2023/03/08 09:43:03;;;;;;;30.48;14.02;;;;;;;14.75;71.43;99503.91;4946755;29;20036;-90
2023/03/08 09:45:29;;;;;;;33.00;15.60;;;;;;;14.72;71.75;99504.34;4946045;29;20036;-87
2023/03/08 09:48:22;;;;;;;38.28;17.08;;;;;;;14.61;71.73;99501.53;4927333;29;20089;-90
2023/03/08 09:50:53;;;;;;;38.22;17.75;;;;;;;14.72;71.42;99498.19;4955095;29;20043;-92
2023/03/08 09:53:23;;;;;;;24.85;11.52;;;;;;;14.71;72.90;99494.72;4952854;29;20035;-90
2023/03/08 09:56:10;;;;;;;31.20;15.50;;;;;;;15.97;65.93;99490.03;4944300;29;20098;-90
2023/03/08 09:58:55;;;;;;;33.08;14.50;;;;;;;16.76;58.82;99484.56;4913969;29;20047;-91
2023/03/08 10:01:59;;;;;;;35.17;16.92;;;;;;;17.40;58.32;99488.31;4937011;29;20032;-92
2023/03/08 10:04:34;;;;;;;41.08;15.95;;;;;;;17.42;55.21;99491.56;4921850;29;20145;-90
2023/03/08 10:07:10;;;;;;;33.10;15.95;;;;;;;16.46;58.22;99489.03;4919485;29;20063;-92
2023/03/08 10:09:40;;;;;;;34.17;15.20;;;;;;;15.89;60.29;99471.59;4934714;29;20436;-92
2023/03/08 10:12:15;;;;;;;37.75;16.13;;;;;;;16.77;58.11;99472.78;4914724;29;20123;-90
2023/03/08 10:14:50;;;;;;;33.72;15.32;;;;;;;17.73;53.68;99480.53;4914318;29;20055;-90
2023/03/08 10:17:20;;;;;;;31.65;16.40;;;;;;;18.47;51.54;99473.53;4892324;29;20071;-90
2023/03/08 10:20:06;;;;;;;32.53;15.05;;;;;;;18.92;49.14;99471.75;4886769;29;20067;-89
2023/03/08 10:22:37;;;;;;;37.10;14.48;;;;;;;18.65;49.57;99470.69;4889184;29;20196;-87
2023/03/08 10:25:30;;;;;;;33.90;16.08;;;;;;;18.97;49.85;99469.13;4908510;29;20119;-87
2023/03/08 10:27:58;;;;;;;33.35;15.00;;;;;;;18.52;50.86;99471.00;4921155;29;20139;-91
2023/03/08 10:30:30;;;;;;;30.25;14.93;;;;;;;19.08;49.95;99460.22;4915540;29;20068;-92
2023/03/08 10:32:59;;;;;;;31.48;15.48;;;;;;;19.97;47.49;99463.75;4909042;29;20044;-91
2023/03/08 10:35:36;;;;;;;37.35;14.25;;;;;;;21.10;43.81;99460.22;4911654;29;20120;-90
2023/03/08 10:38:15;;;;;;;30.88;15.57;;;;;;;21.65;42.20;99472.47;4924855;29;20084;-90
2023/03/08 10:40:40;;;;;;;31.77;14.57;;;;;;;21.93;40.83;99480.25;4944455;29;20051;-90
2023/03/08 10:43:06;;;;;;;32.63;14.05;;;;;;;21.87;40.52;99483.97;4936872;29;20114;-92
2023/03/08 10:45:32;;;;;;;27.63;12.60;;;;;;;21.41;41.42;99474.72;4939300;29;20054;-92
2023/03/08 10:48:04;;;;;;;27.77;13.18;;;;;;;22.02;39.93;99472.47;4932755;29;20039;-88
2023/03/08 10:50:36;;;;;;;25.88;13.88;;;;;;;21.52;41.40;99459.44;4935474;29;20047;-89
2023/03/08 10:53:19;;;;;;;27.25;13.13;;;;;;;20.40;42.63;99446.00;4951403;28;20027;-89
2023/03/08 10:55:50;;;;;;;27.42;14.20;;;;;;;20.05;45.28;99436.38;4934425;29;20047;-89
2023/03/08 10:58:38;;;;;;;32.47;14.82;;;;;;;21.10;42.23;99444.03;4934895;29;20026;-91
2023/03/08 11:01:29;;;;;;;35.95;14.80;;;;;;;21.07;42.33;99449.09;4941419;29;20036;-91
2023/03/08 11:04:18;;;;;;;28.05;13.73;;;;;;;20.71;43.11;99449.84;4941084;29;20491;-91
2023/03/08 11:06:46;;;;;;;26.50;12.70;;;;;;;20.62;43.26;99446.75;4956793;29;21315;-90
2023/03/08 11:09:26;;;;;;;31.45;12.88;;;;;;;20.51;43.76;99450.44;4928488;29;20048;-91
2023/03/08 11:11:54;;;;;;;37.80;14.90;;;;;;;19.91;45.80;99437.84;4934858;29;20031;-90
2023/03/08 11:14:20;;;;;;;31.77;14.88;;;;;;;20.28;45.76;99459.59;4956555;29;20047;-92
2023/03/08 11:16:57;;;;;;;29.77;14.25;;;;;;;19.75;47.11;99465.59;4947785;29;20042;-90
2023/03/08 11:19:39;;;;;;;29.48;15.32;;;;;;;19.41;48.09;99469.34;4943850;29;20031;-88
2023/03/08 11:22:24;;;;;;;30.42;14.80;;;;;;;19.67;47.78;99459.78;4926165;29;20442;-88
2023/03/08 11:25:11;;;;;;;28.05;15.02;;;;;;;19.27;48.99;99462.66;4938395;29;20051;-90
2023/03/08 11:27:46;;;;;;;34.47;16.45;;;;;;;17.90;55.20;99446.59;4924673;29;20050;-87
2023/03/08 11:30:23;;;;;;;21.45;13.90;;;;;;;17.75;54.44;99450.84;4927793;29;20043;-90
2023/03/08 11:32:54;;;;;;;28.08;14.75;;;;;;;17.43;55.96;99436.97;4937528;28;20391;-89
2023/03/08 11:35:46;;;;;;;28.20;13.40;;;;;;;16.99;58.66;99438.31;4945301;29;20027;-88
2023/03/08 11:38:21;;;;;;;29.08;13.40;;;;;;;16.97;58.68;99443.88;4942772;29;20122;-89
2023/03/08 11:40:56;;;;;;;30.80;13.85;;;;;;;16.95;58.59;99464.72;4947465;29;20035;-88
2023/03/08 11:43:28;;;;;;;32.13;15.23;;;;;;;16.90;59.39;99453.84;4954087;29;20031;-93
2023/03/08 11:45:59;;;;;;;27.93;14.47;;;;;;;16.87;60.33;99442.81;4956637;29;20501;-91
2023/03/08 11:48:47;;;;;;;29.52;15.55;;;;;;;16.68;61.68;99442.06;4958307;29;20038;-89
2023/03/08 11:51:16;;;;;;;26.30;14.60;;;;;;;17.03;60.97;99440.28;4955327;29;20047;-90
2023/03/08 11:53:54;;;;;;;36.40;15.02;;;;;;;17.80;58.40;99424.94;4969012;28;20047;-88
2023/03/08 11:56:40;;;;;;;29.67;14.73;;;;;;;20.10;48.62;99436.47;4951001;29;20035;-89
2023/03/08 11:59:31;;;;;;;29.52;16.05;;;;;;;21.34;44.67;99433.72;4955182;29;20190;-89
2023/03/08 12:01:57;;;;;;;28.13;13.88;;;;;;;21.10;45.96;99435.16;4953013;29;20118;-89
2023/03/08 12:04:49;;;;;;;34.10;14.65;;;;;;;19.69;48.34;99431.59;4951916;28;20604;-89
2023/03/08 12:07:24;;;;;;;29.98;15.02;;;;;;;18.19;54.05;99426.06;4925700;29;20047;-86
2023/03/08 12:10:24;;;;;;;38.35;14.55;;;;;;;17.63;56.65;99410.66;4932096;29;20063;-91
2023/03/08 12:13:02;;;;;;;30.15;14.80;;;;;;;17.05;59.32;99416.78;4916568;29;20048;-90
2023/03/08 12:15:38;;;;;;;29.35;13.80;;;;;;;16.73;60.71;99415.44;4935837;29;20047;-90
2023/03/08 12:18:26;;;;;;;26.55;12.50;;;;;;;16.46;61.65;99419.50;4954502;29;20031;-90
2023/03/08 12:21:11;;;;;;;35.90;14.60;;;;;;;16.29;62.42;99416.63;4950717;29;20067;-84